createdAt,value
2022-12-03T00:02:21.467Z,8.57
2022-12-03T00:05:23.410Z,8.68
2022-12-03T00:08:25.349Z,10.02
2022-12-03T00:11:27.357Z,9.05
2022-12-03T00:14:29.771Z,8.13
2022-12-03T00:17:31.631Z,6.90
2022-12-03T00:20:33.664Z,8.05
2022-12-03T00:23:41.557Z,9.13
2022-12-03T00:26:45.142Z,8.98
2022-12-03T00:29:48.184Z,8.70
2022-12-03T00:32:50.319Z,8.00
2022-12-03T00:35:52.258Z,10.85
2022-12-03T00:38:54.081Z,11.93
2022-12-03T00:41:55.942Z,11.25
2022-12-03T00:44:57.905Z,8.60
2022-12-03T00:48:00.137Z,10.48
2022-12-03T00:51:02.551Z,8.60
2022-12-03T00:54:04.629Z,8.88
2022-12-03T00:57:06.955Z,10.48
2022-12-03T01:00:10.600Z,10.88
2022-12-03T01:03:12.387Z,10.63
2022-12-03T01:06:14.880Z,11.32
2022-12-03T01:09:16.725Z,11.88
2022-12-03T01:12:18.540Z,7.22
2022-12-03T01:15:20.313Z,14.23
2022-12-03T01:18:22.370Z,7.43
2022-12-03T01:21:24.422Z,11.10
2022-12-03T01:24:26.552Z,10.60
2022-12-03T01:27:28.734Z,10.85
2022-12-03T01:30:51.154Z,8.10
2022-12-03T01:33:55.395Z,10.43
2022-12-03T01:36:57.637Z,8.48
2022-12-03T01:39:59.436Z,7.20
2022-12-03T01:43:01.919Z,11.90
2022-12-03T01:46:04.333Z,7.88
2022-12-03T01:49:07.280Z,6.35
2022-12-03T01:52:18.805Z,6.00
2022-12-03T01:55:21.476Z,8.02
2022-12-03T01:58:27.620Z,9.45
2022-12-03T02:01:29.674Z,5.47
2022-12-03T02:04:31.460Z,5.00
2022-12-03T02:07:36.931Z,5.72
2022-12-03T02:10:38.865Z,7.88
2022-12-03T02:13:43.050Z,6.45
2022-12-03T02:16:45.129Z,5.75
2022-12-03T02:19:47.669Z,6.28
2022-12-03T02:23:11.626Z,6.00
2022-12-03T02:26:13.851Z,5.38
2022-12-03T02:29:15.954Z,6.35
2022-12-03T02:32:17.862Z,5.63
2022-12-03T02:35:22.318Z,5.25
2022-12-03T02:38:26.617Z,6.18
2022-12-03T02:41:47.350Z,6.75
2022-12-03T02:44:49.097Z,6.13
2022-12-03T02:48:06.524Z,6.32
2022-12-03T02:51:09.630Z,3.88
2022-12-03T02:54:11.799Z,5.35
2022-12-03T02:57:15.635Z,5.55
2022-12-03T03:00:18.488Z,6.85
2022-12-03T03:03:25.032Z,5.72
2022-12-03T03:06:27.039Z,4.60
2022-12-03T03:09:28.773Z,6.97
2022-12-03T03:12:33.627Z,6.85
2022-12-03T03:15:40.775Z,5.13
2022-12-03T03:18:43.004Z,5.75
2022-12-03T03:21:44.820Z,6.45
2022-12-03T03:24:46.717Z,5.72
2022-12-03T03:27:48.924Z,4.93
2022-12-03T03:30:52.638Z,5.50
2022-12-03T03:33:54.986Z,4.53
2022-12-03T03:36:56.856Z,5.30
2022-12-03T03:39:58.659Z,5.53
2022-12-03T03:43:01.487Z,4.13
2022-12-03T03:46:05.239Z,5.50
2022-12-03T03:49:07.709Z,4.50
2022-12-03T03:52:11.772Z,6.05
2022-12-03T03:55:13.861Z,4.68
2022-12-03T03:58:17.045Z,5.38
2022-12-03T04:01:19.373Z,5.10
2022-12-03T04:04:23.607Z,5.47
2022-12-03T04:07:25.482Z,4.93
2022-12-03T04:10:46.561Z,5.57
2022-12-03T04:13:48.351Z,5.40
2022-12-03T04:16:50.786Z,4.72
2022-12-03T04:19:52.713Z,6.38
2022-12-03T04:22:54.514Z,5.13
2022-12-03T04:26:15.026Z,4.45
2022-12-03T04:29:17.906Z,5.13
2022-12-03T04:32:38.554Z,5.50
2022-12-03T04:35:43.275Z,5.10
2022-12-03T04:38:45.711Z,4.70
2022-12-03T04:41:47.635Z,4.50
2022-12-03T04:44:51.161Z,5.28
2022-12-03T04:47:53.388Z,4.35
2022-12-03T04:50:55.171Z,5.22
2022-12-03T04:53:57.492Z,4.50
2022-12-03T04:56:59.633Z,4.32
2022-12-03T05:00:01.737Z,4.93
2022-12-03T05:03:03.795Z,4.43
2022-12-03T05:06:05.885Z,5.38
2022-12-03T05:09:08.134Z,4.80
2022-12-03T05:12:10.077Z,5.28
2022-12-03T05:15:11.946Z,4.70
2022-12-03T05:18:14.311Z,5.20
2022-12-03T05:21:16.132Z,4.15
2022-12-03T05:24:18.291Z,4.18
2022-12-03T05:27:23.954Z,5.72
2022-12-03T05:30:26.359Z,5.00
2022-12-03T05:33:28.474Z,5.60
2022-12-03T05:36:30.335Z,6.38
2022-12-03T05:39:32.563Z,5.97
2022-12-03T05:42:53.042Z,4.95
2022-12-03T05:45:55.093Z,5.05
2022-12-03T05:48:56.969Z,4.03
2022-12-03T05:51:59.048Z,4.60
2022-12-03T05:55:01.661Z,4.53
2022-12-03T05:58:03.964Z,3.08
2022-12-03T06:01:08.922Z,4.03
2022-12-03T06:04:10.831Z,3.83
2022-12-03T06:07:14.287Z,2.70
2022-12-03T06:10:22.198Z,3.13
2022-12-03T06:13:24.680Z,2.75
2022-12-03T06:16:26.940Z,3.47
2022-12-03T06:19:29.440Z,4.15
2022-12-03T06:22:31.955Z,3.35
2022-12-03T06:25:33.841Z,2.88
2022-12-03T06:28:36.194Z,4.38
2022-12-03T06:31:38.426Z,4.07
2022-12-03T06:34:40.763Z,3.85
2022-12-03T06:37:43.321Z,3.88
2022-12-03T06:40:45.590Z,3.17
2022-12-03T06:43:48.106Z,3.70
2022-12-03T06:46:50.395Z,2.60
2022-12-03T06:49:52.596Z,3.40
2022-12-03T06:52:55.082Z,3.90
2022-12-03T06:55:57.097Z,3.70
2022-12-03T06:58:59.501Z,4.38
2022-12-03T07:02:01.601Z,3.17
2022-12-03T07:05:04.266Z,2.88
2022-12-03T07:08:07.418Z,3.13
2022-12-03T07:11:29.707Z,4.03
2022-12-03T07:14:32.133Z,2.25
2022-12-03T07:17:34.318Z,2.30
2022-12-03T07:20:36.891Z,3.72
2022-12-03T07:23:39.206Z,2.70
2022-12-03T07:26:41.572Z,2.55
2022-12-03T07:29:43.656Z,2.47
2022-12-03T07:32:45.848Z,3.00
2022-12-03T07:35:48.622Z,3.53
2022-12-03T07:38:54.119Z,3.17
2022-12-03T07:41:56.274Z,3.60
2022-12-03T07:44:58.536Z,2.30
2022-12-03T07:48:00.800Z,3.42
2022-12-03T07:51:03.296Z,2.88
2022-12-03T07:54:05.704Z,2.95
2022-12-03T07:57:08.579Z,3.05
2022-12-03T08:00:11.557Z,3.00
2022-12-03T08:03:13.998Z,3.88
2022-12-03T08:06:16.319Z,4.10
2022-12-03T08:09:18.261Z,2.45
2022-12-03T08:12:25.764Z,2.55
2022-12-03T08:15:33.856Z,3.50
2022-12-03T08:18:41.122Z,3.03
2022-12-03T08:21:43.753Z,2.63
2022-12-03T08:24:46.009Z,1.75
2022-12-03T08:27:48.893Z,3.85
2022-12-03T08:31:20.035Z,2.53
2022-12-03T08:34:24.383Z,2.67
2022-12-03T08:37:26.791Z,1.90
2022-12-03T08:40:37.255Z,2.38
2022-12-03T08:43:42.926Z,2.22
2022-12-03T08:47:18.169Z,1.70
2022-12-03T08:50:52.817Z,2.42
2022-12-03T08:54:02.064Z,1.90
2022-12-03T08:57:32.060Z,2.35
2022-12-03T09:00:34.164Z,2.78
2022-12-03T09:03:37.618Z,2.30
2022-12-03T09:06:39.630Z,2.80
2022-12-03T09:09:42.099Z,2.47
2022-12-03T09:12:44.126Z,2.35
2022-12-03T09:15:46.601Z,2.20
2022-12-03T09:18:48.587Z,2.40
2022-12-03T09:21:50.574Z,2.28
2022-12-03T09:24:53.373Z,2.00
2022-12-03T09:27:55.978Z,2.22
2022-12-03T09:30:58.607Z,2.63
2022-12-03T09:34:02.237Z,2.47
2022-12-03T09:37:04.113Z,2.72
2022-12-03T09:40:07.430Z,3.22
2022-12-03T09:43:10.827Z,2.83
2022-12-03T09:46:13.940Z,2.90
2022-12-03T09:49:19.202Z,1.73
2022-12-03T09:52:27.468Z,1.65
2022-12-03T09:55:30.289Z,2.35
2022-12-03T09:58:34.895Z,1.98
2022-12-03T10:01:37.230Z,2.45
2022-12-03T10:04:39.478Z,3.20
2022-12-03T10:07:42.077Z,3.05
2022-12-03T10:10:44.903Z,2.20
2022-12-03T10:13:47.617Z,2.47
2022-12-03T10:16:50.439Z,2.38
2022-12-03T10:19:52.884Z,2.03
2022-12-03T10:22:55.227Z,2.72
2022-12-03T10:25:59.638Z,2.42
2022-12-03T10:29:01.544Z,1.80
2022-12-03T10:32:06.850Z,2.67
2022-12-03T10:35:18.331Z,2.78
2022-12-03T10:38:24.089Z,2.95
2022-12-03T10:41:28.885Z,2.55
2022-12-03T10:44:30.813Z,3.08
2022-12-03T10:47:34.450Z,3.30
2022-12-03T10:50:37.507Z,3.03
2022-12-03T10:53:41.481Z,3.25
2022-12-03T10:56:44.403Z,2.85
2022-12-03T10:59:46.956Z,2.80
2022-12-03T11:02:54.876Z,3.33
2022-12-03T11:06:00.505Z,1.70
2022-12-03T11:09:08.754Z,3.25
2022-12-03T11:12:24.307Z,2.78
2022-12-03T11:15:43.950Z,2.13
2022-12-03T11:18:46.360Z,3.47
2022-12-03T11:22:11.793Z,2.97
2022-12-03T11:25:26.107Z,3.03
2022-12-03T11:28:28.515Z,4.15
2022-12-03T11:31:45.502Z,3.83
2022-12-03T11:37:49.932Z,3.92
2022-12-03T11:41:22.774Z,2.78
2022-12-03T11:44:31.002Z,3.65
2022-12-03T11:47:46.887Z,2.70
2022-12-03T11:50:52.702Z,2.42
2022-12-03T11:53:58.661Z,2.42
2022-12-03T11:57:00.650Z,3.10
2022-12-03T12:00:07.500Z,2.30
2022-12-03T12:03:23.234Z,2.72
2022-12-03T12:06:25.386Z,2.80
2022-12-03T12:09:50.695Z,4.80
2022-12-03T12:12:55.037Z,3.05
2022-12-03T12:16:02.481Z,3.13
2022-12-03T12:19:32.918Z,3.33
2022-12-03T12:22:35.299Z,4.28
2022-12-03T12:25:40.506Z,3.60
2022-12-03T12:28:42.491Z,3.05
2022-12-03T12:31:48.258Z,3.40
2022-12-03T12:34:55.946Z,2.45
2022-12-03T12:38:11.435Z,2.95
2022-12-03T12:41:13.452Z,3.55
2022-12-03T12:44:15.586Z,3.55
2022-12-03T12:47:18.184Z,2.47
2022-12-03T12:50:20.878Z,3.42
2022-12-03T12:53:25.327Z,2.92
2022-12-03T12:56:30.636Z,4.10
2022-12-03T12:59:32.992Z,3.08
2022-12-03T13:02:44.791Z,3.17
2022-12-03T13:05:48.817Z,3.08
2022-12-03T13:08:51.472Z,3.17
2022-12-03T13:11:56.566Z,3.30
2022-12-03T13:15:00.162Z,3.35
2022-12-03T13:18:18.311Z,3.00
2022-12-03T13:21:41.922Z,3.78
2022-12-03T13:24:47.935Z,2.85
2022-12-03T13:27:51.230Z,3.53
2022-12-03T13:30:53.674Z,3.70
2022-12-03T13:33:56.790Z,3.00
2022-12-03T13:37:01.382Z,3.50
2022-12-03T13:40:18.030Z,4.07
2022-12-03T13:43:20.317Z,2.97
2022-12-03T13:46:22.463Z,4.05
2022-12-03T13:49:25.021Z,3.25
2022-12-03T13:52:27.256Z,3.67
2022-12-03T13:55:31.736Z,2.97
2022-12-03T13:58:33.986Z,2.67
2022-12-03T14:01:36.538Z,3.78
2022-12-03T14:04:39.589Z,4.13
2022-12-03T14:07:41.642Z,3.38
2022-12-03T14:10:44.133Z,3.15
2022-12-03T14:13:46.271Z,2.58
2022-12-03T14:16:48.377Z,3.83
2022-12-03T14:19:50.697Z,4.25
2022-12-03T14:22:58.850Z,3.95
2022-12-03T14:26:01.715Z,3.70
2022-12-03T14:29:08.548Z,3.67
2022-12-03T14:32:11.311Z,3.03
2022-12-03T14:35:13.480Z,3.40
2022-12-03T14:38:15.554Z,3.05
2022-12-03T14:41:36.068Z,2.60
2022-12-03T14:44:38.698Z,6.07
2022-12-03T14:47:40.884Z,6.15
2022-12-03T14:50:43.505Z,5.50
2022-12-03T14:53:45.866Z,7.93
2022-12-03T14:56:47.880Z,6.72
2022-12-03T14:59:50.099Z,8.10
2022-12-03T15:02:52.373Z,8.45
2022-12-03T15:05:54.924Z,8.48
2022-12-03T15:08:57.177Z,7.57
2022-12-03T15:12:00.287Z,6.68
2022-12-03T15:15:02.611Z,10.98
2022-12-03T15:18:04.500Z,9.88
2022-12-03T15:21:07.201Z,11.60
2022-12-03T15:24:10.591Z,9.52
2022-12-03T15:27:13.096Z,8.10
2022-12-03T15:30:15.414Z,7.53
2022-12-03T15:33:17.686Z,8.60
2022-12-03T15:36:20.093Z,8.15
2022-12-03T15:39:22.430Z,11.27
2022-12-03T15:42:24.513Z,10.02
2022-12-03T15:45:26.735Z,7.93
2022-12-03T15:48:28.818Z,8.25
2022-12-03T15:51:32.781Z,8.82
2022-12-03T15:54:37.665Z,8.13
2022-12-03T15:57:39.873Z,7.30
2022-12-03T16:00:42.057Z,8.82
2022-12-03T16:03:44.096Z,8.60
2022-12-03T16:06:46.134Z,11.30
2022-12-03T16:09:48.453Z,11.40
2022-12-03T16:12:51.129Z,12.90
2022-12-03T16:15:53.533Z,9.45
2022-12-03T16:18:55.647Z,9.57
2022-12-03T16:21:57.982Z,12.50
2022-12-03T16:24:59.948Z,12.68
2022-12-03T16:28:02.237Z,13.48
2022-12-03T16:31:04.520Z,12.93
2022-12-03T16:34:06.638Z,9.63
2022-12-03T16:37:24.052Z,12.40
2022-12-03T16:40:26.233Z,10.98
2022-12-03T16:43:28.407Z,10.30
2022-12-03T16:46:30.681Z,7.90
2022-12-03T16:49:32.738Z,9.82
2022-12-03T16:52:35.714Z,9.75
2022-12-03T16:55:38.742Z,9.90
2022-12-03T16:58:41.913Z,13.25
2022-12-03T17:01:43.978Z,16.15
2022-12-03T17:04:46.138Z,16.27
2022-12-03T17:07:50.055Z,13.07
2022-12-03T17:10:53.450Z,8.77
2022-12-03T17:13:56.174Z,8.75
2022-12-03T17:17:00.348Z,6.20
2022-12-03T17:20:04.221Z,7.55
2022-12-03T17:23:06.772Z,7.57
2022-12-03T17:26:09.200Z,7.13
2022-12-03T17:29:11.706Z,6.18
2022-12-03T17:32:14.933Z,9.20
2022-12-03T17:35:17.771Z,9.73
2022-12-03T17:38:19.894Z,7.45
2022-12-03T17:41:22.726Z,8.73
2022-12-03T17:44:24.996Z,8.43
2022-12-03T17:47:27.145Z,9.07
2022-12-03T17:50:29.548Z,7.22
2022-12-03T17:53:31.933Z,7.80
2022-12-03T17:56:38.159Z,8.52
2022-12-03T17:59:41.023Z,10.32
2022-12-03T18:02:43.175Z,10.70
2022-12-03T18:05:46.480Z,7.93
2022-12-03T18:08:48.947Z,9.52
2022-12-03T18:11:51.902Z,10.55
2022-12-03T18:14:54.160Z,10.98
2022-12-03T18:17:56.621Z,11.50
2022-12-03T18:21:02.471Z,11.93
2022-12-03T18:24:05.280Z,8.00
2022-12-03T18:27:07.540Z,10.93
2022-12-03T18:30:10.855Z,11.27
2022-12-03T18:33:13.860Z,9.27
2022-12-03T18:36:22.043Z,11.07
2022-12-03T18:39:31.947Z,12.43
2022-12-03T18:42:36.673Z,12.35
2022-12-03T18:45:39.429Z,8.38
2022-12-03T18:48:43.097Z,10.27
2022-12-03T18:51:45.359Z,9.20
2022-12-03T18:54:48.377Z,12.95
2022-12-03T18:57:50.574Z,14.10
2022-12-03T19:00:53.313Z,14.80
2022-12-03T19:03:55.316Z,10.95
2022-12-03T19:06:57.656Z,10.95
2022-12-03T19:09:59.831Z,8.55
2022-12-03T19:13:04.107Z,12.38
2022-12-03T19:16:07.176Z,13.15
2022-12-03T19:19:09.531Z,8.13
2022-12-03T19:22:11.842Z,8.55
2022-12-03T19:25:14.032Z,11.27
2022-12-03T19:28:15.921Z,8.80
2022-12-03T19:31:18.559Z,8.13
2022-12-03T19:34:21.553Z,8.48
2022-12-03T19:37:24.942Z,8.05
2022-12-03T19:40:27.587Z,8.18
2022-12-03T19:43:32.591Z,9.38
2022-12-03T19:46:34.714Z,10.02
2022-12-03T19:49:36.686Z,7.65
2022-12-03T19:52:39.215Z,8.98
2022-12-03T19:55:41.148Z,8.18
2022-12-03T19:58:45.513Z,7.38
2022-12-03T20:01:47.834Z,7.35
2022-12-03T20:04:50.233Z,6.90
2022-12-03T20:07:52.399Z,8.02
2022-12-03T20:10:54.546Z,8.13
2022-12-03T20:13:58.530Z,8.68
2022-12-03T20:17:00.494Z,8.60
2022-12-03T20:20:03.135Z,6.90
2022-12-03T20:23:05.779Z,10.38
2022-12-03T20:26:13.490Z,7.82
2022-12-03T20:29:15.512Z,8.57
2022-12-03T20:32:18.777Z,8.88
2022-12-03T20:35:21.103Z,9.60
2022-12-03T20:38:27.363Z,8.98
2022-12-03T20:41:29.773Z,8.10
2022-12-03T20:44:31.936Z,8.43
2022-12-03T20:47:34.301Z,7.97
2022-12-03T20:50:40.040Z,10.68
2022-12-03T20:53:42.623Z,10.10
2022-12-03T20:56:44.577Z,11.63
2022-12-03T20:59:46.968Z,9.55
2022-12-03T21:02:49.598Z,12.10
2022-12-03T21:05:59.448Z,8.55
2022-12-03T21:09:02.816Z,8.43
2022-12-03T21:12:06.129Z,7.28
2022-12-03T21:15:08.540Z,7.38
2022-12-03T21:18:12.651Z,6.32
2022-12-03T21:21:16.113Z,6.43
2022-12-03T21:24:18.683Z,4.82
2022-12-03T21:27:21.941Z,5.05
2022-12-03T21:30:24.409Z,6.13
2022-12-03T21:33:27.718Z,4.88
2022-12-03T21:36:31.317Z,3.38
2022-12-03T21:39:33.555Z,4.72
2022-12-03T21:42:38.841Z,5.18
2022-12-03T21:45:42.572Z,3.40
2022-12-03T21:48:45.513Z,4.10
2022-12-03T21:51:49.981Z,3.45
2022-12-03T21:54:53.376Z,3.53
2022-12-03T21:57:56.512Z,3.03
2022-12-03T22:00:59.126Z,4.57
2022-12-03T22:04:01.443Z,5.07
2022-12-03T22:07:05.028Z,6.18
2022-12-03T22:10:10.419Z,5.15
2022-12-03T22:13:12.935Z,3.80
2022-12-03T22:16:17.791Z,3.92
2022-12-03T22:19:23.517Z,2.40
2022-12-03T22:22:25.955Z,4.15
2022-12-03T22:25:28.235Z,3.70
2022-12-03T22:28:30.510Z,2.28
2022-12-03T22:31:32.876Z,3.38
2022-12-03T22:34:35.168Z,4.95
2022-12-03T22:37:37.481Z,4.70
2022-12-03T22:40:40.041Z,4.47
2022-12-03T22:43:42.142Z,4.28
2022-12-03T22:46:44.612Z,6.65
2022-12-03T22:49:46.713Z,7.32
2022-12-03T22:52:48.899Z,7.00
2022-12-03T22:55:59.253Z,5.32
2022-12-03T22:59:01.517Z,8.05
2022-12-03T23:02:03.817Z,2.97
2022-12-03T23:05:07.318Z,2.80
2022-12-03T23:08:12.182Z,9.02
2022-12-03T23:11:14.532Z,11.60
2022-12-03T23:14:18.881Z,7.32
2022-12-03T23:17:20.774Z,10.60
2022-12-03T23:20:23.412Z,8.65
2022-12-03T23:23:27.572Z,10.10
2022-12-03T23:26:29.944Z,8.52
2022-12-03T23:29:34.670Z,7.25
2022-12-03T23:32:37.047Z,7.03
2022-12-03T23:35:39.372Z,8.55
2022-12-03T23:38:41.557Z,9.95
2022-12-03T23:41:43.616Z,14.75
2022-12-03T23:44:46.156Z,13.15
2022-12-03T23:47:48.156Z,8.73
2022-12-03T23:50:50.013Z,8.48
2022-12-03T23:53:53.293Z,7.90
2022-12-03T23:56:55.511Z,7.20
2022-12-03T23:59:57.528Z,6.70
